createdAt,value
2023-04-10T00:00:32.305Z,90177.19
2023-04-10T00:03:35.994Z,90172.56
2023-04-10T00:06:39.480Z,90162.09
2023-04-10T00:09:42.712Z,90171.72
2023-04-10T00:12:46.884Z,90159.97
2023-04-10T00:15:51.648Z,90166.41
2023-04-10T00:18:55.005Z,90155.97
2023-04-10T00:21:58.442Z,90155.94
2023-04-10T00:25:01.918Z,90152.06
2023-04-10T00:28:05.298Z,90146.97
2023-04-10T00:31:08.465Z,90145.63
2023-04-10T00:34:12.526Z,90143.78
2023-04-10T00:37:15.715Z,90144.41
2023-04-10T00:40:19.387Z,90141.78
2023-04-10T00:43:23.619Z,90135.19
2023-04-10T00:46:28.161Z,90140.34
2023-04-10T00:49:32.338Z,90136.44
2023-04-10T00:52:36.587Z,90145.47
2023-04-10T00:55:40.121Z,90141.00
2023-04-10T00:58:43.768Z,90143.63
2023-04-10T01:01:47.104Z,90139.81
2023-04-10T01:04:50.612Z,90139.88
2023-04-10T01:08:23.868Z,90136.09
2023-04-10T01:11:30.271Z,90141.38
2023-04-10T01:14:48.375Z,90132.50
2023-04-10T01:17:56.633Z,90135.81
2023-04-10T01:21:03.371Z,90137.81
2023-04-10T01:24:55.511Z,90137.09
2023-04-10T01:28:25.472Z,90141.56
2023-04-10T01:31:52.085Z,90142.22
2023-04-10T01:34:57.797Z,90135.91
2023-04-10T01:38:05.754Z,90145.78
2023-04-10T01:41:09.730Z,90138.16
2023-04-10T01:44:15.999Z,90137.47
2023-04-10T01:47:20.221Z,90145.72
2023-04-10T01:50:25.122Z,90147.50
2023-04-10T01:53:29.070Z,90147.41
2023-04-10T01:56:34.665Z,90140.38
2023-04-10T01:59:40.367Z,90137.88
2023-04-10T02:02:45.138Z,90139.19
2023-04-10T02:06:16.552Z,90139.91
2023-04-10T02:09:47.963Z,90136.44
2023-04-10T02:13:02.194Z,90138.09
2023-04-10T02:16:12.618Z,90132.59
2023-04-10T02:19:17.991Z,90145.66
2023-04-10T02:22:22.704Z,90139.88
2023-04-10T02:25:26.280Z,90140.34
2023-04-10T02:28:30.559Z,90138.44
2023-04-10T02:31:34.061Z,90132.63
2023-04-10T02:34:38.209Z,90129.31
2023-04-10T02:37:43.374Z,90134.91
2023-04-10T02:40:48.010Z,90133.84
2023-04-10T02:43:53.358Z,90139.97
2023-04-10T02:47:02.443Z,90152.75
2023-04-10T02:50:09.644Z,90148.84
2023-04-10T02:53:16.814Z,90147.50
2023-04-10T02:56:20.390Z,90158.28
2023-04-10T02:59:23.745Z,90155.00
2023-04-10T03:02:27.327Z,90147.25
2023-04-10T03:05:33.415Z,90145.28
2023-04-10T03:08:37.584Z,90142.59
2023-04-10T03:11:42.032Z,90144.38
2023-04-10T03:14:45.660Z,90152.31
2023-04-10T03:17:49.572Z,90151.22
2023-04-10T03:20:53.539Z,90156.38
2023-04-10T03:23:57.175Z,90160.38
2023-04-10T03:27:02.214Z,90167.56
2023-04-10T03:30:06.291Z,90158.50
2023-04-10T03:33:17.021Z,90153.34
2023-04-10T03:36:20.614Z,90155.41
2023-04-10T03:39:24.568Z,90152.22
2023-04-10T03:42:28.052Z,90159.34
2023-04-10T03:45:32.030Z,90156.22
2023-04-10T03:48:37.401Z,90164.81
2023-04-10T03:51:40.827Z,90174.03
2023-04-10T03:54:44.410Z,90187.06
2023-04-10T03:57:59.361Z,90183.34
2023-04-10T04:01:03.035Z,90179.50
2023-04-10T04:04:13.412Z,90180.75
2023-04-10T04:07:55.462Z,90177.28
2023-04-10T04:11:09.315Z,90168.75
2023-04-10T04:14:28.349Z,90166.00
2023-04-10T04:17:50.199Z,90172.25
2023-04-10T04:21:11.664Z,90170.59
2023-04-10T04:24:41.085Z,90173.53
2023-04-10T04:28:12.886Z,90180.41
2023-04-10T04:31:25.843Z,90174.81
2023-04-10T04:34:49.419Z,90176.28
2023-04-10T04:38:03.853Z,90173.63
2023-04-10T04:41:36.295Z,90180.56
2023-04-10T04:44:51.586Z,90182.03
2023-04-10T04:48:14.880Z,90189.84
2023-04-10T04:51:30.526Z,90197.72
2023-04-10T04:54:46.963Z,90192.63
2023-04-10T04:58:12.205Z,90207.13
2023-04-10T05:01:29.253Z,90205.94
2023-04-10T05:04:51.206Z,90206.66
2023-04-10T05:08:14.826Z,90216.41
2023-04-10T05:11:41.119Z,90219.84
2023-04-10T05:15:11.028Z,90227.25
2023-04-10T05:18:27.735Z,90233.47
2023-04-10T05:21:57.262Z,90242.94
2023-04-10T05:25:19.448Z,90238.66
2023-04-10T05:28:51.379Z,90243.19
2023-04-10T05:32:22.221Z,90241.66
2023-04-10T05:35:47.274Z,90251.47
2023-04-10T05:39:08.774Z,90251.44
2023-04-10T05:42:30.365Z,90253.75
2023-04-10T05:45:52.217Z,90249.22
2023-04-10T05:49:04.900Z,90253.75
2023-04-10T05:52:37.109Z,90255.66
2023-04-10T05:55:57.405Z,90264.41
2023-04-10T05:59:38.673Z,90256.34
2023-04-10T06:02:58.058Z,90281.84
2023-04-10T06:06:04.343Z,90287.47
2023-04-10T06:09:08.455Z,90297.53
2023-04-10T06:12:11.790Z,90297.59
2023-04-10T06:15:16.707Z,90304.91
2023-04-10T06:18:20.124Z,90311.56
2023-04-10T06:21:24.459Z,90311.56
2023-04-10T06:24:27.707Z,90319.84
2023-04-10T06:27:31.938Z,90328.81
2023-04-10T06:30:35.488Z,90327.50
2023-04-10T06:33:38.913Z,90339.78
2023-04-10T06:36:44.633Z,90344.47
2023-04-10T06:39:48.053Z,90349.22
2023-04-10T06:42:51.303Z,90360.50
2023-04-10T06:46:10.395Z,90356.69
2023-04-10T06:49:13.644Z,90354.81
2023-04-10T06:52:17.639Z,90355.59
2023-04-10T06:55:20.860Z,90372.38
2023-04-10T06:58:25.121Z,90383.41
2023-04-10T07:01:28.580Z,90378.84
2023-04-10T07:04:32.662Z,90377.53
2023-04-10T07:07:36.061Z,90400.03
2023-04-10T07:10:39.242Z,90395.53
2023-04-10T07:13:42.500Z,90396.78
2023-04-10T07:16:45.992Z,90397.34
2023-04-10T07:19:49.256Z,90396.00
2023-04-10T07:22:52.468Z,90397.97
2023-04-10T07:25:55.886Z,90391.66
2023-04-10T07:28:59.023Z,90403.41
2023-04-10T07:32:02.445Z,90406.66
2023-04-10T07:35:07.092Z,90404.81
2023-04-10T07:38:10.337Z,90415.06
2023-04-10T07:41:13.668Z,90420.25
2023-04-10T07:44:18.326Z,90429.41
2023-04-10T07:47:21.576Z,90436.53
2023-04-10T07:50:26.944Z,90429.44
2023-04-10T07:53:30.152Z,90437.25
2023-04-10T07:56:33.622Z,90445.63
2023-04-10T07:59:36.860Z,90439.84
2023-04-10T08:02:41.878Z,90455.41
2023-04-10T08:05:45.159Z,90454.88
2023-04-10T08:08:48.769Z,90450.34
2023-04-10T08:11:52.040Z,90457.41
2023-04-10T08:14:55.514Z,90460.56
2023-04-10T08:17:58.768Z,90467.66
2023-04-10T08:21:02.348Z,90465.81
2023-04-10T08:24:06.170Z,90471.00
2023-04-10T08:27:09.334Z,90482.06
2023-04-10T08:30:12.802Z,90477.66
2023-04-10T08:33:16.222Z,90489.25
2023-04-10T08:36:20.329Z,90491.81
2023-04-10T08:39:24.064Z,90484.69
2023-04-10T08:42:28.188Z,90487.22
2023-04-10T08:45:31.626Z,90509.88
2023-04-10T08:48:48.297Z,90523.41
2023-04-10T08:51:59.329Z,90521.47
2023-04-10T08:55:08.566Z,90533.72
2023-04-10T08:58:14.350Z,90533.09
2023-04-10T09:01:18.005Z,90542.13
2023-04-10T09:04:22.104Z,90543.41
2023-04-10T09:07:25.642Z,90564.63
2023-04-10T09:10:28.976Z,90562.09
2023-04-10T09:13:43.337Z,90573.06
2023-04-10T09:16:47.002Z,90586.56
2023-04-10T09:19:55.140Z,90576.94
2023-04-10T09:22:59.065Z,90586.56
2023-04-10T09:26:02.381Z,90590.44
2023-04-10T09:29:07.932Z,90596.25
2023-04-10T09:32:12.391Z,90598.84
2023-04-10T09:35:16.723Z,90599.47
2023-04-10T09:38:22.298Z,90600.75
2023-04-10T09:41:25.721Z,90602.69
2023-04-10T09:44:33.345Z,90609.13
2023-04-10T09:47:36.890Z,90614.94
2023-04-10T09:50:44.225Z,90632.28
2023-04-10T09:53:51.560Z,90630.38
2023-04-10T09:56:55.436Z,90624.63
2023-04-10T10:00:00.634Z,90636.16
2023-04-10T10:03:08.471Z,90641.97
2023-04-10T10:06:12.895Z,90640.03
2023-04-10T10:09:16.971Z,90649.69
2023-04-10T10:12:29.104Z,90653.53
2023-04-10T10:16:12.980Z,90660.63
2023-04-10T10:19:28.131Z,90672.16
2023-04-10T10:22:33.113Z,90677.97
2023-04-10T10:25:37.045Z,90681.81
2023-04-10T10:28:42.931Z,90677.31
2023-04-10T10:31:48.614Z,90691.44
2023-04-10T10:34:53.796Z,90692.75
2023-04-10T10:38:00.007Z,90712.03
2023-04-10T10:41:26.700Z,90719.75
2023-04-10T10:44:42.380Z,90724.88
2023-04-10T10:47:56.041Z,90730.03
2023-04-10T10:51:02.399Z,90739.00
2023-04-10T10:54:35.240Z,90756.34
2023-04-10T10:57:49.004Z,90742.81
2023-04-10T11:00:52.367Z,90749.88
2023-04-10T11:03:56.209Z,90760.78
2023-04-10T11:06:59.538Z,90767.19
2023-04-10T11:10:02.865Z,90759.47
2023-04-10T11:13:25.543Z,90785.19
2023-04-10T11:16:36.438Z,90790.31
2023-04-10T11:20:03.105Z,90798.00
2023-04-10T11:23:13.845Z,90805.69
2023-04-10T11:26:44.664Z,90816.00
2023-04-10T11:29:47.874Z,90810.19
2023-04-10T11:32:51.558Z,90824.34
2023-04-10T11:35:55.583Z,90824.97
2023-04-10T11:39:10.523Z,90828.16
2023-04-10T11:42:14.004Z,90828.13
2023-04-10T11:45:25.589Z,90839.00
2023-04-10T11:48:30.260Z,90842.84
2023-04-10T11:51:33.463Z,90855.06
2023-04-10T11:54:38.440Z,90853.75
2023-04-10T11:57:41.633Z,90867.84
2023-04-10T12:00:44.864Z,90869.78
2023-04-10T12:03:48.331Z,90869.75
2023-04-10T12:06:53.567Z,90883.88
2023-04-10T12:10:00.140Z,90887.72
2023-04-10T12:13:03.364Z,90887.72
2023-04-10T12:16:09.105Z,90891.56
2023-04-10T12:19:13.685Z,90888.94
2023-04-10T12:22:16.986Z,90908.16
2023-04-10T12:25:22.241Z,90901.13
2023-04-10T12:28:25.487Z,90911.34
2023-04-10T12:31:29.608Z,90929.97
2023-04-10T12:34:32.937Z,90920.31
2023-04-10T12:37:53.233Z,90917.69
2023-04-10T12:41:01.216Z,90922.81
2023-04-10T12:44:12.991Z,90929.22
2023-04-10T12:47:16.328Z,90925.41
2023-04-10T12:50:21.645Z,90929.19
2023-04-10T12:53:25.427Z,90934.97
2023-04-10T12:56:28.696Z,90928.53
2023-04-10T12:59:32.339Z,90932.38
2023-04-10T13:02:35.930Z,90941.31
2023-04-10T13:05:39.824Z,90943.88
2023-04-10T13:08:43.055Z,90946.44
2023-04-10T13:11:47.433Z,90950.22
2023-04-10T13:14:51.844Z,90940.59
2023-04-10T13:17:55.243Z,90944.44
2023-04-10T13:20:58.541Z,90950.78
2023-04-10T13:24:01.825Z,90970.59
2023-04-10T13:27:05.416Z,90954.56
2023-04-10T13:30:09.342Z,90953.91
2023-04-10T13:33:12.609Z,90965.44
2023-04-10T13:36:16.566Z,90976.28
2023-04-10T13:39:20.040Z,90967.41
2023-04-10T13:42:23.243Z,90950.63
2023-04-10T13:45:26.974Z,90971.22
2023-04-10T13:48:39.822Z,90965.38
2023-04-10T13:51:44.436Z,90967.94
2023-04-10T13:54:47.625Z,90972.31
2023-04-10T13:57:50.950Z,90986.34
2023-04-10T14:00:56.855Z,90980.63
2023-04-10T14:04:00.159Z,90982.47
2023-04-10T14:07:03.469Z,90974.75
2023-04-10T14:10:07.842Z,90991.41
2023-04-10T14:13:12.241Z,90969.47
2023-04-10T14:16:15.685Z,90988.00
2023-04-10T14:19:18.871Z,90977.06
2023-04-10T14:22:22.342Z,90991.81
2023-04-10T14:25:25.590Z,90995.66
2023-04-10T14:28:29.896Z,90989.19
2023-04-10T14:31:33.693Z,91003.94
2023-04-10T14:34:37.319Z,91007.78
2023-04-10T14:37:40.598Z,91008.97
2023-04-10T14:40:46.487Z,91008.28
2023-04-10T14:43:49.795Z,91013.47
2023-04-10T14:46:53.091Z,91005.72
2023-04-10T14:49:56.865Z,91011.47
2023-04-10T14:53:01.116Z,91015.91
2023-04-10T14:56:11.957Z,91026.19
2023-04-10T14:59:15.247Z,91015.31
2023-04-10T15:02:18.574Z,91020.84
2023-04-10T15:05:23.310Z,91029.16
2023-04-10T15:08:26.314Z,91025.34
2023-04-10T15:11:29.470Z,91030.38
2023-04-10T15:14:32.877Z,91039.31
2023-04-10T15:17:36.406Z,91039.97
2023-04-10T15:20:39.650Z,91038.59
2023-04-10T15:23:42.828Z,91041.22
2023-04-10T15:26:46.739Z,91045.03
2023-04-10T15:29:50.218Z,91049.59
2023-04-10T15:32:53.647Z,91051.53
2023-04-10T15:35:57.232Z,91052.16
2023-04-10T15:39:02.870Z,91047.06
2023-04-10T15:42:08.294Z,91048.94
2023-04-10T15:45:11.558Z,91050.94
2023-04-10T15:48:14.775Z,91054.06
2023-04-10T15:51:18.042Z,91051.44
2023-04-10T15:54:21.308Z,91054.63
2023-04-10T15:57:24.629Z,91052.75
2023-04-10T16:00:27.812Z,91062.91
2023-04-10T16:03:31.177Z,91062.94
2023-04-10T16:06:35.128Z,91067.41
2023-04-10T16:09:38.398Z,91071.28
2023-04-10T16:12:42.178Z,91080.19
2023-04-10T16:15:47.706Z,91075.63
2023-04-10T16:18:52.537Z,91088.38
2023-04-10T16:21:57.751Z,91078.81
2023-04-10T16:25:01.493Z,91095.41
2023-04-10T16:28:07.165Z,91094.13
2023-04-10T16:31:10.353Z,91094.13
2023-04-10T16:34:13.585Z,91095.41
2023-04-10T16:37:16.862Z,91098.53
2023-04-10T16:40:20.303Z,91099.81
2023-04-10T16:43:24.393Z,91107.50
2023-04-10T16:46:31.923Z,91115.88
2023-04-10T16:49:35.236Z,91104.13
2023-04-10T16:52:38.500Z,91109.19
2023-04-10T16:55:41.770Z,91107.31
2023-04-10T16:58:45.168Z,91106.59
2023-04-10T17:01:48.489Z,91118.16
2023-04-10T17:04:51.564Z,91115.56
2023-04-10T17:07:54.767Z,91113.72
2023-04-10T17:10:57.908Z,91112.25
2023-04-10T17:14:01.242Z,91124.41
2023-04-10T17:17:04.782Z,91121.91
2023-04-10T17:20:10.385Z,91112.91
2023-04-10T17:23:13.642Z,91125.75
2023-04-10T17:26:17.923Z,91127.66
2023-04-10T17:29:21.142Z,91134.13
2023-04-10T17:32:24.326Z,91127.03
2023-04-10T17:35:27.637Z,91126.97
2023-04-10T17:38:30.864Z,91130.19
2023-04-10T17:41:33.984Z,91137.31
2023-04-10T17:44:37.172Z,91123.84
2023-04-10T17:47:41.048Z,91138.56
2023-04-10T17:50:44.519Z,91139.84
2023-04-10T17:53:50.141Z,91132.78
2023-04-10T17:56:53.831Z,91136.13
2023-04-10T17:59:57.018Z,91135.97
2023-04-10T18:03:02.036Z,91139.06
2023-04-10T18:06:05.384Z,91146.59
2023-04-10T18:09:08.521Z,91149.78
2023-04-10T18:12:11.698Z,91135.66
2023-04-10T18:15:17.535Z,91140.19
2023-04-10T18:18:20.868Z,91144.03
2023-04-10T18:21:24.040Z,91138.88
2023-04-10T18:24:27.236Z,91148.53
2023-04-10T18:27:32.261Z,91119.78
2023-04-10T18:30:39.585Z,91153.63
2023-04-10T18:33:43.631Z,91144.66
2023-04-10T18:36:49.415Z,91155.69
2023-04-10T18:39:54.224Z,91146.59
2023-04-10T18:42:57.546Z,91146.66
2023-04-10T18:46:00.997Z,91153.72
2023-04-10T18:49:04.277Z,91150.53
2023-04-10T18:52:10.578Z,91145.97
2023-04-10T18:55:13.875Z,91154.81
2023-04-10T18:58:17.100Z,91158.66
2023-04-10T19:01:20.357Z,91163.16
2023-04-10T19:04:23.954Z,91163.22
2023-04-10T19:07:27.231Z,91163.81
2023-04-10T19:10:30.533Z,91150.97
2023-04-10T19:13:34.434Z,91163.16
2023-04-10T19:16:37.650Z,91163.22
2023-04-10T19:19:40.874Z,91161.69
2023-04-10T19:22:44.007Z,91160.38
2023-04-10T19:25:47.605Z,91158.47
2023-04-10T19:28:51.044Z,91165.50
2023-04-10T19:31:54.147Z,91161.75
2023-04-10T19:34:57.378Z,91168.72
2023-04-10T19:38:00.495Z,91158.63
2023-04-10T19:41:03.690Z,91165.72
2023-04-10T19:44:09.247Z,91161.09
2023-04-10T19:47:12.612Z,91168.88
2023-04-10T19:50:15.724Z,91176.69
2023-04-10T19:53:18.922Z,91172.06
2023-04-10T19:56:22.525Z,91172.53
2023-04-10T19:59:25.793Z,91171.31
2023-04-10T20:02:29.054Z,91180.88
2023-04-10T20:05:32.333Z,91180.22
2023-04-10T20:08:36.390Z,91180.97
2023-04-10T20:11:39.621Z,91193.06
2023-04-10T20:14:45.330Z,91194.28
2023-04-10T20:17:48.539Z,91184.63
2023-04-10T20:20:51.730Z,91188.56
2023-04-10T20:23:54.955Z,91185.38
2023-04-10T20:26:58.335Z,91186.06
2023-04-10T20:30:01.712Z,91190.50
2023-04-10T20:33:05.891Z,91184.63
2023-04-10T20:36:09.418Z,91193.63
2023-04-10T20:39:12.549Z,91195.53
2023-04-10T20:42:17.676Z,91200.69
2023-04-10T20:45:21.201Z,91203.97
2023-04-10T20:48:24.463Z,91203.84
2023-04-10T20:51:29.344Z,91198.19
2023-04-10T20:54:32.968Z,91203.84
2023-04-10T20:57:36.141Z,91201.75
2023-04-10T21:00:41.667Z,91217.34
2023-04-10T21:03:45.002Z,91219.13
2023-04-10T21:06:48.234Z,91221.09
2023-04-10T21:09:51.403Z,91224.88
2023-04-10T21:12:54.554Z,91227.41
2023-04-10T21:15:57.893Z,91223.53
2023-04-10T21:19:01.190Z,91226.66
2023-04-10T21:22:04.619Z,91222.28
2023-04-10T21:25:08.192Z,91244.00
2023-04-10T21:28:11.386Z,91238.81
2023-04-10T21:31:15.154Z,91238.09
2023-04-10T21:34:18.318Z,91243.84
2023-04-10T21:37:21.497Z,91255.91
2023-04-10T21:40:25.528Z,91259.69
2023-04-10T21:43:28.769Z,91261.03
2023-04-10T21:46:32.124Z,91255.84
2023-04-10T21:49:35.362Z,91264.84
2023-04-10T21:52:38.592Z,91263.66
2023-04-10T21:55:41.874Z,91274.72
2023-04-10T21:58:45.155Z,91275.50
2023-04-10T22:01:48.433Z,91282.66
2023-04-10T22:04:54.648Z,91296.28
2023-04-10T22:07:58.253Z,91297.81
2023-04-10T22:11:01.485Z,91294.13
2023-04-10T22:14:15.768Z,91292.94
2023-04-10T22:17:20.650Z,91307.72
2023-04-10T22:20:23.755Z,91303.41
2023-04-10T22:23:27.041Z,91302.88
2023-04-10T22:26:30.168Z,91307.41
2023-04-10T22:29:35.683Z,91321.63
2023-04-10T22:32:38.960Z,91313.50
2023-04-10T22:35:42.125Z,91331.50
2023-04-10T22:38:45.395Z,91330.41
2023-04-10T22:41:48.537Z,91332.44
2023-04-10T22:44:51.848Z,91327.75
2023-04-10T22:47:55.031Z,91342.97
2023-04-10T22:50:58.310Z,91350.97
2023-04-10T22:54:01.669Z,91356.38
2023-04-10T22:57:05.035Z,91352.97
2023-04-10T23:00:08.973Z,91361.03
2023-04-10T23:03:12.205Z,91374.44
2023-04-10T23:06:15.448Z,91373.06
2023-04-10T23:09:18.607Z,91368.88
2023-04-10T23:12:21.708Z,91379.47
2023-04-10T23:15:24.843Z,91383.25
2023-04-10T23:18:28.069Z,91384.50
2023-04-10T23:21:32.259Z,91400.50
2023-04-10T23:24:35.411Z,91409.44
2023-04-10T23:27:38.627Z,91407.00
2023-04-10T23:30:43.230Z,91409.75
2023-04-10T23:33:46.873Z,91418.56
2023-04-10T23:36:50.163Z,91418.31
2023-04-10T23:39:53.307Z,91424.88
2023-04-10T23:42:56.507Z,91441.50
2023-04-10T23:45:59.904Z,91434.66
2023-04-10T23:49:03.425Z,91444.63
2023-04-10T23:52:07.002Z,91441.66
2023-04-10T23:55:10.742Z,91455.47
2023-04-10T23:58:13.995Z,91461.50
